sensor_id;sensor_type;location;lat;lon;timestamp;P1;durP1;ratioP1;P2;durP2;ratioP2
52650;SDS011;38537;47.226;39.702;2022-08-07T00:00:24;8.40;;;2.20;;
52650;SDS011;38537;47.226;39.702;2022-08-07T00:02:52;6.90;;;2.30;;
52650;SDS011;38537;47.226;39.702;2022-08-07T00:05:23;5.47;;;2.15;;
52650;SDS011;38537;47.226;39.702;2022-08-07T00:07:52;7.47;;;2.40;;
52650;SDS011;38537;47.226;39.702;2022-08-07T00:10:28;5.82;;;2.20;;
52650;SDS011;38537;47.226;39.702;2022-08-07T00:13:01;5.40;;;2.35;;
52650;SDS011;38537;47.226;39.702;2022-08-07T00:15:50;8.48;;;2.78;;
52650;SDS011;38537;47.226;39.702;2022-08-07T00:18:19;8.13;;;2.45;;
52650;SDS011;38537;47.226;39.702;2022-08-07T00:21:01;6.45;;;2.40;;
52650;SDS011;38537;47.226;39.702;2022-08-07T00:23:49;7.03;;;2.40;;
52650;SDS011;38537;47.226;39.702;2022-08-07T00:26:17;9.25;;;2.60;;
52650;SDS011;38537;47.226;39.702;2022-08-07T00:29:04;5.53;;;2.35;;
52650;SDS011;38537;47.226;39.702;2022-08-07T00:31:31;7.65;;;2.50;;
52650;SDS011;38537;47.226;39.702;2022-08-07T00:34:04;6.10;;;2.20;;
52650;SDS011;38537;47.226;39.702;2022-08-07T00:36:35;9.55;;;2.83;;
52650;SDS011;38537;47.226;39.702;2022-08-07T00:39:10;8.20;;;2.63;;
52650;SDS011;38537;47.226;39.702;2022-08-07T00:41:50;6.30;;;2.53;;
52650;SDS011;38537;47.226;39.702;2022-08-07T00:44:34;9.23;;;2.70;;
52650;SDS011;38537;47.226;39.702;2022-08-07T00:47:07;8.98;;;2.60;;
52650;SDS011;38537;47.226;39.702;2022-08-07T00:49:55;8.60;;;2.65;;
52650;SDS011;38537;47.226;39.702;2022-08-07T00:52:42;7.13;;;2.60;;
52650;SDS011;38537;47.226;39.702;2022-08-07T00:55:13;10.10;;;2.38;;
52650;SDS011;38537;47.226;39.702;2022-08-07T00:57:50;5.82;;;2.45;;
52650;SDS011;38537;47.226;39.702;2022-08-07T01:00:21;7.32;;;2.60;;
52650;SDS011;38537;47.226;39.702;2022-08-07T01:02:50;6.72;;;2.65;;
52650;SDS011;38537;47.226;39.702;2022-08-07T01:05:17;7.50;;;2.63;;
52650;SDS011;38537;47.226;39.702;2022-08-07T01:07:50;6.97;;;2.55;;
52650;SDS011;38537;47.226;39.702;2022-08-07T01:10:17;6.47;;;2.70;;
52650;SDS011;38537;47.226;39.702;2022-08-07T01:12:46;7.53;;;2.50;;
52650;SDS011;38537;47.226;39.702;2022-08-07T01:15:24;8.38;;;3.08;;
52650;SDS011;38537;47.226;39.702;2022-08-07T01:18:12;4.95;;;2.53;;
52650;SDS011;38537;47.226;39.702;2022-08-07T01:20:52;4.97;;;2.50;;
52650;SDS011;38537;47.226;39.702;2022-08-07T01:23:48;5.65;;;2.85;;
52650;SDS011;38537;47.226;39.702;2022-08-07T01:26:17;8.68;;;3.00;;
52650;SDS011;38537;47.226;39.702;2022-08-07T01:28:47;6.45;;;2.90;;
52650;SDS011;38537;47.226;39.702;2022-08-07T01:31:28;6.30;;;2.55;;
52650;SDS011;38537;47.226;39.702;2022-08-07T01:34:11;10.43;;;2.88;;
52650;SDS011;38537;47.226;39.702;2022-08-07T01:36:41;13.85;;;3.03;;
52650;SDS011;38537;47.226;39.702;2022-08-07T01:39:20;10.40;;;2.90;;
52650;SDS011;38537;47.226;39.702;2022-08-07T01:42:01;14.13;;;3.78;;
52650;SDS011;38537;47.226;39.702;2022-08-07T01:44:49;11.35;;;3.65;;
52650;SDS011;38537;47.226;39.702;2022-08-07T01:47:16;9.35;;;2.70;;
52650;SDS011;38537;47.226;39.702;2022-08-07T01:50:05;7.60;;;2.88;;
52650;SDS011;38537;47.226;39.702;2022-08-07T01:52:33;6.07;;;2.70;;
52650;SDS011;38537;47.226;39.702;2022-08-07T01:55:15;6.53;;;2.70;;
52650;SDS011;38537;47.226;39.702;2022-08-07T01:57:50;9.43;;;2.50;;
52650;SDS011;38537;47.226;39.702;2022-08-07T02:00:41;4.78;;;2.33;;
52650;SDS011;38537;47.226;39.702;2022-08-07T02:03:15;5.03;;;2.35;;
52650;SDS011;38537;47.226;39.702;2022-08-07T02:05:56;7.28;;;2.38;;
52650;SDS011;38537;47.226;39.702;2022-08-07T02:08:48;6.57;;;2.85;;
52650;SDS011;38537;47.226;39.702;2022-08-07T02:11:23;7.22;;;2.80;;
52650;SDS011;38537;47.226;39.702;2022-08-07T02:14:11;6.97;;;2.30;;
52650;SDS011;38537;47.226;39.702;2022-08-07T02:17:01;9.30;;;2.58;;
52650;SDS011;38537;47.226;39.702;2022-08-07T02:19:29;7.75;;;2.80;;
52650;SDS011;38537;47.226;39.702;2022-08-07T02:22:16;10.30;;;2.78;;
52650;SDS011;38537;47.226;39.702;2022-08-07T02:24:52;10.38;;;2.47;;
52650;SDS011;38537;47.226;39.702;2022-08-07T02:27:22;9.70;;;2.70;;
52650;SDS011;38537;47.226;39.702;2022-08-07T02:30:01;8.50;;;2.80;;
52650;SDS011;38537;47.226;39.702;2022-08-07T02:32:34;6.20;;;2.53;;
52650;SDS011;38537;47.226;39.702;2022-08-07T02:35:23;6.53;;;2.63;;
52650;SDS011;38537;47.226;39.702;2022-08-07T02:38:12;6.85;;;2.97;;
52650;SDS011;38537;47.226;39.702;2022-08-07T02:40:42;10.13;;;3.00;;
52650;SDS011;38537;47.226;39.702;2022-08-07T02:43:13;7.63;;;2.80;;
52650;SDS011;38537;47.226;39.702;2022-08-07T02:45:46;5.82;;;2.67;;
52650;SDS011;38537;47.226;39.702;2022-08-07T02:48:28;10.77;;;2.97;;
52650;SDS011;38537;47.226;39.702;2022-08-07T02:50:58;7.55;;;3.05;;
52650;SDS011;38537;47.226;39.702;2022-08-07T02:53:33;8.25;;;3.30;;
52650;SDS011;38537;47.226;39.702;2022-08-07T02:56:06;5.25;;;2.97;;
52650;SDS011;38537;47.226;39.702;2022-08-07T02:58:50;14.95;;;3.83;;
52650;SDS011;38537;47.226;39.702;2022-08-07T03:01:21;10.27;;;3.00;;
52650;SDS011;38537;47.226;39.702;2022-08-07T03:04:10;8.68;;;3.47;;
52650;SDS011;38537;47.226;39.702;2022-08-07T03:06:42;9.00;;;3.40;;
52650;SDS011;38537;47.226;39.702;2022-08-07T03:09:14;6.80;;;3.42;;
52650;SDS011;38537;47.226;39.702;2022-08-07T03:12:05;9.55;;;3.35;;
52650;SDS011;38537;47.226;39.702;2022-08-07T03:14:51;13.90;;;3.20;;
52650;SDS011;38537;47.226;39.702;2022-08-07T03:17:22;10.02;;;3.45;;
52650;SDS011;38537;47.226;39.702;2022-08-07T03:19:53;10.55;;;3.83;;
52650;SDS011;38537;47.226;39.702;2022-08-07T03:22:24;7.47;;;3.35;;
52650;SDS011;38537;47.226;39.702;2022-08-07T03:24:58;6.90;;;3.10;;
52650;SDS011;38537;47.226;39.702;2022-08-07T03:27:31;7.53;;;3.08;;
52650;SDS011;38537;47.226;39.702;2022-08-07T03:30:20;8.20;;;3.10;;
52650;SDS011;38537;47.226;39.702;2022-08-07T03:32:52;7.75;;;3.45;;
52650;SDS011;38537;47.226;39.702;2022-08-07T03:35:29;10.45;;;3.45;;
52650;SDS011;38537;47.226;39.702;2022-08-07T03:38:17;6.45;;;3.00;;
52650;SDS011;38537;47.226;39.702;2022-08-07T03:40:49;6.80;;;3.00;;
52650;SDS011;38537;47.226;39.702;2022-08-07T03:43:24;6.72;;;2.88;;
52650;SDS011;38537;47.226;39.702;2022-08-07T03:46:02;8.52;;;3.55;;
52650;SDS011;38537;47.226;39.702;2022-08-07T03:48:46;12.15;;;3.70;;
52650;SDS011;38537;47.226;39.702;2022-08-07T03:51:34;8.32;;;3.13;;
52650;SDS011;38537;47.226;39.702;2022-08-07T03:54:15;6.43;;;3.35;;
52650;SDS011;38537;47.226;39.702;2022-08-07T03:57:05;5.22;;;2.97;;
52650;SDS011;38537;47.226;39.702;2022-08-07T03:59:36;6.18;;;2.90;;
52650;SDS011;38537;47.226;39.702;2022-08-07T04:02:25;6.68;;;2.78;;
52650;SDS011;38537;47.226;39.702;2022-08-07T04:04:55;12.02;;;3.60;;
52650;SDS011;38537;47.226;39.702;2022-08-07T04:07:23;12.20;;;3.75;;
52650;SDS011;38537;47.226;39.702;2022-08-07T04:10:02;9.07;;;2.97;;
52650;SDS011;38537;47.226;39.702;2022-08-07T04:12:31;11.25;;;3.38;;
52650;SDS011;38537;47.226;39.702;2022-08-07T04:15:01;14.32;;;4.03;;
52650;SDS011;38537;47.226;39.702;2022-08-07T04:17:34;9.73;;;4.07;;
52650;SDS011;38537;47.226;39.702;2022-08-07T04:20:22;13.40;;;4.25;;
52650;SDS011;38537;47.226;39.702;2022-08-07T04:22:51;12.40;;;4.35;;
52650;SDS011;38537;47.226;39.702;2022-08-07T04:25:31;8.02;;;3.65;;
52650;SDS011;38537;47.226;39.702;2022-08-07T04:28:08;9.90;;;3.40;;
52650;SDS011;38537;47.226;39.702;2022-08-07T04:30:40;12.70;;;4.13;;
52650;SDS011;38537;47.226;39.702;2022-08-07T04:33:26;14.18;;;4.15;;
52650;SDS011;38537;47.226;39.702;2022-08-07T04:35:56;7.68;;;3.78;;
52650;SDS011;38537;47.226;39.702;2022-08-07T04:38:27;15.13;;;4.32;;
52650;SDS011;38537;47.226;39.702;2022-08-07T04:40:56;6.93;;;3.63;;
52650;SDS011;38537;47.226;39.702;2022-08-07T04:46:38;8.82;;;4.40;;
52650;SDS011;38537;47.226;39.702;2022-08-07T04:49:45;5.82;;;4.10;;
52650;SDS011;38537;47.226;39.702;2022-08-07T04:52:42;9.45;;;3.90;;
52650;SDS011;38537;47.226;39.702;2022-08-07T04:55:22;15.68;;;4.30;;
52650;SDS011;38537;47.226;39.702;2022-08-07T04:58:16;9.07;;;3.58;;
52650;SDS011;38537;47.226;39.702;2022-08-07T05:01:30;13.70;;;4.80;;
52650;SDS011;38537;47.226;39.702;2022-08-07T05:04:21;6.88;;;3.38;;
52650;SDS011;38537;47.226;39.702;2022-08-07T05:12:21;9.50;;;4.05;;
52650;SDS011;38537;47.226;39.702;2022-08-07T05:15:02;5.32;;;3.58;;
52650;SDS011;38537;47.226;39.702;2022-08-07T05:18:05;10.40;;;3.85;;
52650;SDS011;38537;47.226;39.702;2022-08-07T05:20:40;10.35;;;4.75;;
52650;SDS011;38537;47.226;39.702;2022-08-07T05:23:31;15.70;;;4.30;;
52650;SDS011;38537;47.226;39.702;2022-08-07T05:26:04;7.72;;;3.20;;
52650;SDS011;38537;47.226;39.702;2022-08-07T05:28:55;9.98;;;3.97;;
52650;SDS011;38537;47.226;39.702;2022-08-07T05:31:32;6.03;;;3.30;;
52650;SDS011;38537;47.226;39.702;2022-08-07T05:34:12;8.40;;;3.78;;
52650;SDS011;38537;47.226;39.702;2022-08-07T05:36:50;8.30;;;4.50;;
52650;SDS011;38537;47.226;39.702;2022-08-07T05:39:33;5.97;;;3.75;;
52650;SDS011;38537;47.226;39.702;2022-08-07T05:42:22;8.18;;;4.03;;
52650;SDS011;38537;47.226;39.702;2022-08-07T05:45:06;7.70;;;4.25;;
52650;SDS011;38537;47.226;39.702;2022-08-07T05:47:59;6.80;;;3.90;;
52650;SDS011;38537;47.226;39.702;2022-08-07T05:50:38;6.88;;;3.75;;
52650;SDS011;38537;47.226;39.702;2022-08-07T05:53:11;6.93;;;4.10;;
52650;SDS011;38537;47.226;39.702;2022-08-07T05:55:58;8.85;;;5.03;;
52650;SDS011;38537;47.226;39.702;2022-08-07T05:58:37;5.70;;;3.90;;
52650;SDS011;38537;47.226;39.702;2022-08-07T06:01:16;8.75;;;4.40;;
52650;SDS011;38537;47.226;39.702;2022-08-07T06:03:49;8.93;;;4.50;;
52650;SDS011;38537;47.226;39.702;2022-08-07T06:06:33;6.32;;;3.80;;
52650;SDS011;38537;47.226;39.702;2022-08-07T06:09:05;11.00;;;4.80;;
52650;SDS011;38537;47.226;39.702;2022-08-07T06:11:37;8.60;;;4.32;;
52650;SDS011;38537;47.226;39.702;2022-08-07T06:14:06;9.57;;;3.83;;
52650;SDS011;38537;47.226;39.702;2022-08-07T06:16:48;7.93;;;3.83;;
52650;SDS011;38537;47.226;39.702;2022-08-07T06:19:31;6.93;;;3.47;;
52650;SDS011;38537;47.226;39.702;2022-08-07T06:22:19;4.43;;;2.78;;
52650;SDS011;38537;47.226;39.702;2022-08-07T06:25:13;5.90;;;2.95;;
52650;SDS011;38537;47.226;39.702;2022-08-07T06:27:41;5.72;;;3.00;;
52650;SDS011;38537;47.226;39.702;2022-08-07T06:30:26;7.95;;;3.03;;
52650;SDS011;38537;47.226;39.702;2022-08-07T06:33:10;7.25;;;3.38;;
52650;SDS011;38537;47.226;39.702;2022-08-07T06:35:46;5.72;;;3.30;;
52650;SDS011;38537;47.226;39.702;2022-08-07T06:38:38;4.70;;;2.63;;
52650;SDS011;38537;47.226;39.702;2022-08-07T06:41:27;3.60;;;2.58;;
52650;SDS011;38537;47.226;39.702;2022-08-07T06:44:19;6.18;;;2.55;;
52650;SDS011;38537;47.226;39.702;2022-08-07T06:46:50;5.55;;;2.95;;
52650;SDS011;38537;47.226;39.702;2022-08-07T06:49:35;7.75;;;2.90;;
52650;SDS011;38537;47.226;39.702;2022-08-07T06:52:26;4.65;;;2.88;;
52650;SDS011;38537;47.226;39.702;2022-08-07T06:55:13;4.28;;;2.45;;
52650;SDS011;38537;47.226;39.702;2022-08-07T06:58:05;4.63;;;2.83;;
52650;SDS011;38537;47.226;39.702;2022-08-07T07:00:53;3.97;;;2.70;;
52650;SDS011;38537;47.226;39.702;2022-08-07T07:03:23;4.78;;;2.78;;
52650;SDS011;38537;47.226;39.702;2022-08-07T07:06:11;4.40;;;2.25;;
52650;SDS011;38537;47.226;39.702;2022-08-07T07:08:38;4.85;;;2.10;;
52650;SDS011;38537;47.226;39.702;2022-08-07T07:11:12;5.38;;;3.17;;
52650;SDS011;38537;47.226;39.702;2022-08-07T07:14:00;3.13;;;2.50;;
52650;SDS011;38537;47.226;39.702;2022-08-07T07:16:35;3.30;;;2.30;;
52650;SDS011;38537;47.226;39.702;2022-08-07T07:19:18;6.85;;;2.85;;
52650;SDS011;38537;47.226;39.702;2022-08-07T07:22:11;7.72;;;2.50;;
52650;SDS011;38537;47.226;39.702;2022-08-07T07:25:00;4.90;;;2.50;;
52650;SDS011;38537;47.226;39.702;2022-08-07T07:33:42;3.95;;;2.95;;
52650;SDS011;38537;47.226;39.702;2022-08-07T07:36:22;3.92;;;2.63;;
52650;SDS011;38537;47.226;39.702;2022-08-07T07:38:59;4.38;;;2.30;;
52650;SDS011;38537;47.226;39.702;2022-08-07T07:41:28;4.35;;;2.75;;
52650;SDS011;38537;47.226;39.702;2022-08-07T07:44:19;4.28;;;2.70;;
52650;SDS011;38537;47.226;39.702;2022-08-07T07:46:52;3.97;;;2.50;;
52650;SDS011;38537;47.226;39.702;2022-08-07T07:49:39;3.72;;;2.40;;
52650;SDS011;38537;47.226;39.702;2022-08-07T07:52:29;3.78;;;2.30;;
52650;SDS011;38537;47.226;39.702;2022-08-07T07:54:58;4.40;;;2.42;;
52650;SDS011;38537;47.226;39.702;2022-08-07T07:57:29;5.05;;;2.80;;
52650;SDS011;38537;47.226;39.702;2022-08-07T08:00:18;7.10;;;2.95;;
52650;SDS011;38537;47.226;39.702;2022-08-07T08:02:56;5.53;;;2.63;;
52650;SDS011;38537;47.226;39.702;2022-08-07T08:05:34;5.28;;;2.78;;
52650;SDS011;38537;47.226;39.702;2022-08-07T08:08:21;7.15;;;2.88;;
52650;SDS011;38537;47.226;39.702;2022-08-07T08:11:03;3.78;;;2.63;;
52650;SDS011;38537;47.226;39.702;2022-08-07T08:13:35;4.68;;;2.25;;
52650;SDS011;38537;47.226;39.702;2022-08-07T08:16:37;4.60;;;2.53;;
52650;SDS011;38537;47.226;39.702;2022-08-07T08:19:17;2.58;;;2.28;;
52650;SDS011;38537;47.226;39.702;2022-08-07T08:22:10;6.97;;;2.35;;
52650;SDS011;38537;47.226;39.702;2022-08-07T08:24:58;4.30;;;2.45;;
52650;SDS011;38537;47.226;39.702;2022-08-07T08:28:08;6.57;;;3.05;;
52650;SDS011;38537;47.226;39.702;2022-08-07T08:30:58;6.95;;;2.70;;
52650;SDS011;38537;47.226;39.702;2022-08-07T08:33:32;4.40;;;2.42;;
52650;SDS011;38537;47.226;39.702;2022-08-07T08:36:05;4.57;;;2.63;;
52650;SDS011;38537;47.226;39.702;2022-08-07T08:41:20;4.63;;;3.03;;
52650;SDS011;38537;47.226;39.702;2022-08-07T08:44:03;7.07;;;2.50;;
52650;SDS011;38537;47.226;39.702;2022-08-07T08:46:38;6.25;;;2.72;;
52650;SDS011;38537;47.226;39.702;2022-08-07T08:52:21;6.32;;;2.42;;
52650;SDS011;38537;47.226;39.702;2022-08-07T08:54:58;5.57;;;2.20;;
52650;SDS011;38537;47.226;39.702;2022-08-07T09:00:11;6.88;;;2.42;;
52650;SDS011;38537;47.226;39.702;2022-08-07T09:02:43;3.60;;;2.50;;
52650;SDS011;38537;47.226;39.702;2022-08-07T09:11:18;3.17;;;2.20;;
52650;SDS011;38537;47.226;39.702;2022-08-07T09:14:31;4.45;;;1.80;;
52650;SDS011;38537;47.226;39.702;2022-08-07T09:20:11;6.70;;;2.30;;
52650;SDS011;38537;47.226;39.702;2022-08-07T09:28:30;4.43;;;1.85;;
52650;SDS011;38537;47.226;39.702;2022-08-07T09:34:24;7.13;;;2.10;;
52650;SDS011;38537;47.226;39.702;2022-08-07T09:37:00;2.33;;;2.13;;
52650;SDS011;38537;47.226;39.702;2022-08-07T09:55:20;3.35;;;1.80;;
52650;SDS011;38537;47.226;39.702;2022-08-07T10:01:39;5.75;;;1.73;;
52650;SDS011;38537;47.226;39.702;2022-08-07T10:10:43;5.00;;;2.20;;
52650;SDS011;38537;47.226;39.702;2022-08-07T10:22:27;2.50;;;1.50;;
52650;SDS011;38537;47.226;39.702;2022-08-07T10:25:23;2.75;;;1.38;;
52650;SDS011;38537;47.226;39.702;2022-08-07T10:34:00;3.67;;;1.40;;
52650;SDS011;38537;47.226;39.702;2022-08-07T10:42:45;3.50;;;1.52;;
52650;SDS011;38537;47.226;39.702;2022-08-07T10:48:15;6.65;;;1.60;;
52650;SDS011;38537;47.226;39.702;2022-08-07T10:50:51;6.75;;;1.50;;
52650;SDS011;38537;47.226;39.702;2022-08-07T10:59:24;5.43;;;1.50;;
52650;SDS011;38537;47.226;39.702;2022-08-07T11:07:44;3.45;;;1.50;;
52650;SDS011;38537;47.226;39.702;2022-08-07T11:21:54;3.92;;;1.42;;
52650;SDS011;38537;47.226;39.702;2022-08-07T11:24:46;2.90;;;1.42;;
52650;SDS011;38537;47.226;39.702;2022-08-07T11:30:25;4.70;;;1.70;;
52650;SDS011;38537;47.226;39.702;2022-08-07T11:39:16;4.55;;;1.73;;
52650;SDS011;38537;47.226;39.702;2022-08-07T11:54:11;4.28;;;1.70;;
52650;SDS011;38537;47.226;39.702;2022-08-07T12:03:45;4.15;;;1.65;;
52650;SDS011;38537;47.226;39.702;2022-08-07T12:06:42;3.35;;;1.65;;
52650;SDS011;38537;47.226;39.702;2022-08-07T12:09:35;2.90;;;1.50;;
52650;SDS011;38537;47.226;39.702;2022-08-07T12:12:12;3.97;;;1.40;;
52650;SDS011;38537;47.226;39.702;2022-08-07T12:15:02;4.70;;;1.70;;
52650;SDS011;38537;47.226;39.702;2022-08-07T12:17:46;3.45;;;1.60;;
52650;SDS011;38537;47.226;39.702;2022-08-07T12:20:34;3.65;;;1.40;;
52650;SDS011;38537;47.226;39.702;2022-08-07T12:26:43;3.67;;;1.50;;
52650;SDS011;38537;47.226;39.702;2022-08-07T12:29:30;5.28;;;1.67;;
52650;SDS011;38537;47.226;39.702;2022-08-07T12:34:58;3.42;;;1.30;;
52650;SDS011;38537;47.226;39.702;2022-08-07T12:37:34;6.97;;;1.23;;
52650;SDS011;38537;47.226;39.702;2022-08-07T12:40:24;5.50;;;1.50;;
52650;SDS011;38537;47.226;39.702;2022-08-07T12:43:15;3.83;;;1.58;;
52650;SDS011;38537;47.226;39.702;2022-08-07T12:46:12;2.97;;;1.50;;
52650;SDS011;38537;47.226;39.702;2022-08-07T12:52:11;4.65;;;1.48;;
52650;SDS011;38537;47.226;39.702;2022-08-07T12:57:31;7.88;;;1.52;;
52650;SDS011;38537;47.226;39.702;2022-08-07T13:12:18;6.80;;;1.90;;
52650;SDS011;38537;47.226;39.702;2022-08-07T13:15:00;4.38;;;1.80;;
52650;SDS011;38537;47.226;39.702;2022-08-07T13:21:00;6.28;;;1.60;;
52650;SDS011;38537;47.226;39.702;2022-08-07T13:26:59;3.75;;;1.52;;
52650;SDS011;38537;47.226;39.702;2022-08-07T13:32:31;5.05;;;1.40;;
52650;SDS011;38537;47.226;39.702;2022-08-07T13:38:28;4.55;;;1.40;;
52650;SDS011;38537;47.226;39.702;2022-08-07T13:44:16;5.38;;;1.60;;
52650;SDS011;38537;47.226;39.702;2022-08-07T13:46:56;4.18;;;1.50;;
52650;SDS011;38537;47.226;39.702;2022-08-07T13:52:25;2.72;;;1.80;;
52650;SDS011;38537;47.226;39.702;2022-08-07T13:55:06;3.83;;;1.20;;
52650;SDS011;38537;47.226;39.702;2022-08-07T13:57:57;4.43;;;1.55;;
52650;SDS011;38537;47.226;39.702;2022-08-07T14:00:59;7.20;;;1.48;;
52650;SDS011;38537;47.226;39.702;2022-08-07T14:03:35;4.65;;;1.40;;
52650;SDS011;38537;47.226;39.702;2022-08-07T14:06:30;3.42;;;1.30;;
52650;SDS011;38537;47.226;39.702;2022-08-07T14:09:00;5.25;;;1.20;;
52650;SDS011;38537;47.226;39.702;2022-08-07T14:11:30;2.92;;;1.50;;
52650;SDS011;38537;47.226;39.702;2022-08-07T14:14:30;7.35;;;1.63;;
52650;SDS011;38537;47.226;39.702;2022-08-07T14:17:09;4.80;;;1.50;;
52650;SDS011;38537;47.226;39.702;2022-08-07T14:20:03;2.80;;;1.45;;
52650;SDS011;38537;47.226;39.702;2022-08-07T14:23:03;4.45;;;1.55;;
52650;SDS011;38537;47.226;39.702;2022-08-07T14:25:58;4.20;;;1.20;;
52650;SDS011;38537;47.226;39.702;2022-08-07T14:28:34;5.38;;;1.25;;
52650;SDS011;38537;47.226;39.702;2022-08-07T14:31:23;5.15;;;1.25;;
52650;SDS011;38537;47.226;39.702;2022-08-07T14:34:12;5.65;;;1.17;;
52650;SDS011;38537;47.226;39.702;2022-08-07T14:36:46;4.68;;;1.38;;
52650;SDS011;38537;47.226;39.702;2022-08-07T14:39:22;2.40;;;1.20;;
52650;SDS011;38537;47.226;39.702;2022-08-07T14:42:11;4.30;;;1.30;;
52650;SDS011;38537;47.226;39.702;2022-08-07T14:44:48;3.97;;;1.70;;
52650;SDS011;38537;47.226;39.702;2022-08-07T14:47:25;3.40;;;1.35;;
52650;SDS011;38537;47.226;39.702;2022-08-07T14:49:59;6.43;;;1.20;;
52650;SDS011;38537;47.226;39.702;2022-08-07T14:52:39;3.42;;;1.30;;
52650;SDS011;38537;47.226;39.702;2022-08-07T14:55:07;3.97;;;1.10;;
52650;SDS011;38537;47.226;39.702;2022-08-07T14:57:45;6.80;;;1.45;;
52650;SDS011;38537;47.226;39.702;2022-08-07T15:00:33;3.58;;;1.17;;
52650;SDS011;38537;47.226;39.702;2022-08-07T15:03:05;7.90;;;1.50;;
52650;SDS011;38537;47.226;39.702;2022-08-07T15:05:46;5.63;;;1.60;;
52650;SDS011;38537;47.226;39.702;2022-08-07T15:08:38;5.90;;;1.90;;
52650;SDS011;38537;47.226;39.702;2022-08-07T15:11:23;3.65;;;1.70;;
52650;SDS011;38537;47.226;39.702;2022-08-07T15:14:24;3.30;;;1.67;;
52650;SDS011;38537;47.226;39.702;2022-08-07T15:17:15;4.32;;;1.67;;
52650;SDS011;38537;47.226;39.702;2022-08-07T15:19:52;3.22;;;1.45;;
52650;SDS011;38537;47.226;39.702;2022-08-07T15:22:44;4.72;;;1.40;;
52650;SDS011;38537;47.226;39.702;2022-08-07T15:25:23;4.53;;;1.50;;
52650;SDS011;38537;47.226;39.702;2022-08-07T15:28:03;5.28;;;1.65;;
52650;SDS011;38537;47.226;39.702;2022-08-07T15:30:53;2.97;;;1.48;;
52650;SDS011;38537;47.226;39.702;2022-08-07T15:33:59;2.97;;;1.42;;
52650;SDS011;38537;47.226;39.702;2022-08-07T15:36:28;5.03;;;1.70;;
52650;SDS011;38537;47.226;39.702;2022-08-07T15:39:18;5.13;;;1.67;;
52650;SDS011;38537;47.226;39.702;2022-08-07T15:42:00;7.80;;;1.95;;
52650;SDS011;38537;47.226;39.702;2022-08-07T15:44:51;5.75;;;1.90;;
52650;SDS011;38537;47.226;39.702;2022-08-07T15:47:19;5.70;;;1.80;;
52650;SDS011;38537;47.226;39.702;2022-08-07T15:50:11;9.93;;;2.42;;
52650;SDS011;38537;47.226;39.702;2022-08-07T15:53:07;4.97;;;2.05;;
52650;SDS011;38537;47.226;39.702;2022-08-07T15:55:42;5.38;;;2.28;;
52650;SDS011;38537;47.226;39.702;2022-08-07T15:58:31;4.60;;;2.20;;
52650;SDS011;38537;47.226;39.702;2022-08-07T16:01:04;6.53;;;2.17;;
52650;SDS011;38537;47.226;39.702;2022-08-07T16:03:47;7.72;;;2.25;;
52650;SDS011;38537;47.226;39.702;2022-08-07T16:06:32;6.07;;;2.03;;
52650;SDS011;38537;47.226;39.702;2022-08-07T16:09:05;6.35;;;2.03;;
52650;SDS011;38537;47.226;39.702;2022-08-07T16:20:41;7.03;;;2.20;;
52650;SDS011;38537;47.226;39.702;2022-08-07T16:33:07;5.40;;;2.20;;
52650;SDS011;38537;47.226;39.702;2022-08-07T16:41:38;7.72;;;2.22;;
52650;SDS011;38537;47.226;39.702;2022-08-07T16:50:30;8.65;;;2.30;;
52650;SDS011;38537;47.226;39.702;2022-08-07T17:12:14;10.38;;;3.90;;
52650;SDS011;38537;47.226;39.702;2022-08-07T17:17:43;7.32;;;3.80;;
52650;SDS011;38537;47.226;39.702;2022-08-07T17:26:17;7.32;;;2.40;;
52650;SDS011;38537;47.226;39.702;2022-08-07T17:31:33;6.38;;;2.35;;
52650;SDS011;38537;47.226;39.702;2022-08-07T17:34:27;9.05;;;2.60;;
52650;SDS011;38537;47.226;39.702;2022-08-07T17:43:17;8.68;;;2.20;;
52650;SDS011;38537;47.226;39.702;2022-08-07T17:49:12;7.45;;;2.10;;
52650;SDS011;38537;47.226;39.702;2022-08-07T17:52:12;9.50;;;2.30;;
52650;SDS011;38537;47.226;39.702;2022-08-07T17:58:07;7.03;;;2.40;;
52650;SDS011;38537;47.226;39.702;2022-08-07T18:00:56;7.57;;;2.70;;
52650;SDS011;38537;47.226;39.702;2022-08-07T18:03:50;8.80;;;2.90;;
52650;SDS011;38537;47.226;39.702;2022-08-07T18:06:34;6.32;;;2.80;;
52650;SDS011;38537;47.226;39.702;2022-08-07T18:09:09;5.85;;;2.78;;
52650;SDS011;38537;47.226;39.702;2022-08-07T18:12:15;3.65;;;2.47;;
52650;SDS011;38537;47.226;39.702;2022-08-07T18:15:07;5.85;;;2.88;;
52650;SDS011;38537;47.226;39.702;2022-08-07T18:20:32;6.10;;;2.20;;
52650;SDS011;38537;47.226;39.702;2022-08-07T18:23:52;7.82;;;2.80;;
52650;SDS011;38537;47.226;39.702;2022-08-07T18:26:39;7.30;;;2.60;;
52650;SDS011;38537;47.226;39.702;2022-08-07T18:38:36;5.75;;;2.15;;
52650;SDS011;38537;47.226;39.702;2022-08-07T18:47:55;6.82;;;2.10;;
52650;SDS011;38537;47.226;39.702;2022-08-07T18:56:13;6.88;;;2.35;;
52650;SDS011;38537;47.226;39.702;2022-08-07T19:08:23;9.05;;;3.05;;
52650;SDS011;38537;47.226;39.702;2022-08-07T19:10:59;6.60;;;3.00;;
52650;SDS011;38537;47.226;39.702;2022-08-07T19:17:06;13.30;;;3.30;;
52650;SDS011;38537;47.226;39.702;2022-08-07T19:20:06;6.10;;;2.90;;
52650;SDS011;38537;47.226;39.702;2022-08-07T19:23:03;5.13;;;2.83;;
52650;SDS011;38537;47.226;39.702;2022-08-07T19:26:08;5.63;;;3.22;;
52650;SDS011;38537;47.226;39.702;2022-08-07T19:28:55;8.90;;;2.80;;
52650;SDS011;38537;47.226;39.702;2022-08-07T19:31:52;7.55;;;3.08;;
52650;SDS011;38537;47.226;39.702;2022-08-07T19:34:47;8.18;;;2.90;;
52650;SDS011;38537;47.226;39.702;2022-08-07T19:37:18;11.60;;;3.20;;
52650;SDS011;38537;47.226;39.702;2022-08-07T19:39:52;5.80;;;2.60;;
52650;SDS011;38537;47.226;39.702;2022-08-07T19:42:30;3.97;;;2.33;;
52650;SDS011;38537;47.226;39.702;2022-08-07T19:45:07;9.52;;;2.70;;
52650;SDS011;38537;47.226;39.702;2022-08-07T19:47:59;8.50;;;2.70;;
52650;SDS011;38537;47.226;39.702;2022-08-07T19:50:27;8.68;;;2.80;;
52650;SDS011;38537;47.226;39.702;2022-08-07T19:53:12;8.30;;;2.70;;
52650;SDS011;38537;47.226;39.702;2022-08-07T19:56:05;6.78;;;2.10;;
52650;SDS011;38537;47.226;39.702;2022-08-07T19:58:55;7.30;;;2.00;;
52650;SDS011;38537;47.226;39.702;2022-08-07T20:01:23;6.75;;;1.90;;
52650;SDS011;38537;47.226;39.702;2022-08-07T20:04:11;6.18;;;2.35;;
52650;SDS011;38537;47.226;39.702;2022-08-07T20:07:02;4.00;;;2.17;;
52650;SDS011;38537;47.226;39.702;2022-08-07T20:09:43;8.07;;;2.90;;
52650;SDS011;38537;47.226;39.702;2022-08-07T20:12:34;8.27;;;4.47;;
52650;SDS011;38537;47.226;39.702;2022-08-07T20:15:09;4.95;;;2.67;;
52650;SDS011;38537;47.226;39.702;2022-08-07T20:17:47;6.65;;;2.17;;
52650;SDS011;38537;47.226;39.702;2022-08-07T20:20:29;4.15;;;1.80;;
52650;SDS011;38537;47.226;39.702;2022-08-07T20:23:00;2.95;;;1.70;;
52650;SDS011;38537;47.226;39.702;2022-08-07T20:25:49;6.07;;;1.77;;
52650;SDS011;38537;47.226;39.702;2022-08-07T20:28:19;5.43;;;2.00;;
52650;SDS011;38537;47.226;39.702;2022-08-07T20:30:55;5.90;;;2.10;;
52650;SDS011;38537;47.226;39.702;2022-08-07T20:33:26;5.30;;;1.90;;
52650;SDS011;38537;47.226;39.702;2022-08-07T20:36:05;4.50;;;2.38;;
52650;SDS011;38537;47.226;39.702;2022-08-07T20:38:36;4.63;;;2.05;;
52650;SDS011;38537;47.226;39.702;2022-08-07T20:41:25;4.20;;;1.98;;
52650;SDS011;38537;47.226;39.702;2022-08-07T20:44:03;7.32;;;1.85;;
52650;SDS011;38537;47.226;39.702;2022-08-07T20:46:38;3.97;;;1.90;;
52650;SDS011;38537;47.226;39.702;2022-08-07T20:49:10;5.05;;;1.77;;
52650;SDS011;38537;47.226;39.702;2022-08-07T20:52:01;5.43;;;2.13;;